sensor_id;sensor_type;location;lat;lon;timestamp;temperature;humidity
37956;DHT22;23776;51.592;7.180;2023-11-19T00:02:08;10.90;1.00
37956;DHT22;23776;51.592;7.180;2023-11-19T00:04:37;10.90;1.00
37956;DHT22;23776;51.592;7.180;2023-11-19T00:07:05;11.00;1.00
37956;DHT22;23776;51.592;7.180;2023-11-19T00:09:32;11.70;1.00
37956;DHT22;23776;51.592;7.180;2023-11-19T00:11:58;11.00;1.00
37956;DHT22;23776;51.592;7.180;2023-11-19T00:14:26;11.00;1.00
37956;DHT22;23776;51.592;7.180;2023-11-19T00:16:51;11.10;1.00
37956;DHT22;23776;51.592;7.180;2023-11-19T00:19:17;11.00;1.00
37956;DHT22;23776;51.592;7.180;2023-11-19T00:21:42;11.00;1.00
37956;DHT22;23776;51.592;7.180;2023-11-19T00:24:09;11.10;1.00
37956;DHT22;23776;51.592;7.180;2023-11-19T00:26:34;11.10;1.00
37956;DHT22;23776;51.592;7.180;2023-11-19T00:29:00;11.10;1.00
37956;DHT22;23776;51.592;7.180;2023-11-19T00:31:26;11.10;1.00
37956;DHT22;23776;51.592;7.180;2023-11-19T00:33:53;11.10;1.00
37956;DHT22;23776;51.592;7.180;2023-11-19T00:36:19;11.20;1.00
37956;DHT22;23776;51.592;7.180;2023-11-19T00:38:44;11.20;1.00
37956;DHT22;23776;51.592;7.180;2023-11-19T00:41:10;11.20;1.00
37956;DHT22;23776;51.592;7.180;2023-11-19T00:43:36;11.30;1.00
37956;DHT22;23776;51.592;7.180;2023-11-19T00:46:02;11.30;1.00
37956;DHT22;23776;51.592;7.180;2023-11-19T00:48:28;11.30;1.00
37956;DHT22;23776;51.592;7.180;2023-11-19T00:50:54;11.40;1.00
37956;DHT22;23776;51.592;7.180;2023-11-19T00:53:19;11.50;1.00
37956;DHT22;23776;51.592;7.180;2023-11-19T00:55:45;11.50;1.00
37956;DHT22;23776;51.592;7.180;2023-11-19T00:58:10;11.60;1.00
37956;DHT22;23776;51.592;7.180;2023-11-19T01:00:36;11.50;1.00
37956;DHT22;23776;51.592;7.180;2023-11-19T01:03:02;11.60;1.00
37956;DHT22;23776;51.592;7.180;2023-11-19T01:05:27;11.60;1.00
37956;DHT22;23776;51.592;7.180;2023-11-19T01:07:54;11.70;1.00
37956;DHT22;23776;51.592;7.180;2023-11-19T01:10:19;11.70;1.00
37956;DHT22;23776;51.592;7.180;2023-11-19T01:12:45;11.70;1.00
37956;DHT22;23776;51.592;7.180;2023-11-19T01:15:11;11.70;1.00
37956;DHT22;23776;51.592;7.180;2023-11-19T01:17:38;11.70;1.00
37956;DHT22;23776;51.592;7.180;2023-11-19T01:20:04;11.70;1.00
37956;DHT22;23776;51.592;7.180;2023-11-19T01:22:32;11.80;1.00
37956;DHT22;23776;51.592;7.180;2023-11-19T01:24:58;11.70;1.00
37956;DHT22;23776;51.592;7.180;2023-11-19T01:27:24;11.80;1.00
37956;DHT22;23776;51.592;7.180;2023-11-19T01:29:50;11.80;1.00
37956;DHT22;23776;51.592;7.180;2023-11-19T01:32:15;11.90;1.00
37956;DHT22;23776;51.592;7.180;2023-11-19T01:34:41;11.90;1.00
37956;DHT22;23776;51.592;7.180;2023-11-19T01:37:07;11.90;1.00
37956;DHT22;23776;51.592;7.180;2023-11-19T01:39:35;11.90;1.00
37956;DHT22;23776;51.592;7.180;2023-11-19T01:42:01;12.00;1.00
37956;DHT22;23776;51.592;7.180;2023-11-19T01:44:26;11.90;1.00
37956;DHT22;23776;51.592;7.180;2023-11-19T01:46:52;12.00;1.00
37956;DHT22;23776;51.592;7.180;2023-11-19T01:49:19;12.00;1.00
37956;DHT22;23776;51.592;7.180;2023-11-19T01:51:47;12.00;1.00
37956;DHT22;23776;51.592;7.180;2023-11-19T01:54:13;12.00;1.00
37956;DHT22;23776;51.592;7.180;2023-11-19T01:56:41;12.10;1.00
37956;DHT22;23776;51.592;7.180;2023-11-19T01:59:07;12.10;1.00
37956;DHT22;23776;51.592;7.180;2023-11-19T02:01:35;12.10;1.00
37956;DHT22;23776;51.592;7.180;2023-11-19T02:04:05;12.20;1.00
37956;DHT22;23776;51.592;7.180;2023-11-19T02:06:33;12.10;1.00
37956;DHT22;23776;51.592;7.180;2023-11-19T02:08:59;12.20;1.00
37956;DHT22;23776;51.592;7.180;2023-11-19T02:11:26;12.20;1.00
37956;DHT22;23776;51.592;7.180;2023-11-19T02:13:55;12.20;1.00
37956;DHT22;23776;51.592;7.180;2023-11-19T02:16:21;12.20;1.00
37956;DHT22;23776;51.592;7.180;2023-11-19T02:18:47;12.20;1.00
37956;DHT22;23776;51.592;7.180;2023-11-19T02:21:14;12.30;1.00
37956;DHT22;23776;51.592;7.180;2023-11-19T02:23:41;12.30;1.00
37956;DHT22;23776;51.592;7.180;2023-11-19T02:26:12;12.30;1.00
37956;DHT22;23776;51.592;7.180;2023-11-19T02:28:39;12.30;1.00
37956;DHT22;23776;51.592;7.180;2023-11-19T02:31:05;12.40;1.00
37956;DHT22;23776;51.592;7.180;2023-11-19T02:33:38;12.40;1.00
37956;DHT22;23776;51.592;7.180;2023-11-19T02:36:05;12.40;1.00
37956;DHT22;23776;51.592;7.180;2023-11-19T02:38:32;12.40;1.00
37956;DHT22;23776;51.592;7.180;2023-11-19T02:40:58;12.50;1.00
37956;DHT22;23776;51.592;7.180;2023-11-19T02:43:24;12.50;1.00
37956;DHT22;23776;51.592;7.180;2023-11-19T02:45:50;12.40;1.00
37956;DHT22;23776;51.592;7.180;2023-11-19T02:48:16;12.50;1.00
37956;DHT22;23776;51.592;7.180;2023-11-19T02:50:44;12.50;1.00
37956;DHT22;23776;51.592;7.180;2023-11-19T02:53:11;12.50;1.00
37956;DHT22;23776;51.592;7.180;2023-11-19T02:55:38;12.50;1.00
37956;DHT22;23776;51.592;7.180;2023-11-19T02:58:06;12.50;1.00
37956;DHT22;23776;51.592;7.180;2023-11-19T03:00:45;12.50;1.00
37956;DHT22;23776;51.592;7.180;2023-11-19T03:03:17;12.50;1.00
37956;DHT22;23776;51.592;7.180;2023-11-19T03:05:46;12.50;1.00
37956;DHT22;23776;51.592;7.180;2023-11-19T03:08:13;12.60;1.00
37956;DHT22;23776;51.592;7.180;2023-11-19T03:10:39;12.50;1.00
37956;DHT22;23776;51.592;7.180;2023-11-19T03:13:05;12.60;1.00
37956;DHT22;23776;51.592;7.180;2023-11-19T03:15:30;12.60;1.00
37956;DHT22;23776;51.592;7.180;2023-11-19T03:17:56;12.60;1.00
37956;DHT22;23776;51.592;7.180;2023-11-19T03:20:22;12.50;1.00
37956;DHT22;23776;51.592;7.180;2023-11-19T03:22:49;12.60;1.00
37956;DHT22;23776;51.592;7.180;2023-11-19T03:25:16;12.60;1.00
37956;DHT22;23776;51.592;7.180;2023-11-19T03:27:41;12.60;1.00
37956;DHT22;23776;51.592;7.180;2023-11-19T03:30:08;12.60;1.00
37956;DHT22;23776;51.592;7.180;2023-11-19T03:32:35;12.60;1.00
37956;DHT22;23776;51.592;7.180;2023-11-19T03:35:03;12.60;1.00
37956;DHT22;23776;51.592;7.180;2023-11-19T03:37:33;12.60;1.00
37956;DHT22;23776;51.592;7.180;2023-11-19T03:39:59;12.60;1.00
37956;DHT22;23776;51.592;7.180;2023-11-19T03:42:28;12.60;1.00
37956;DHT22;23776;51.592;7.180;2023-11-19T03:44:56;12.60;1.00
37956;DHT22;23776;51.592;7.180;2023-11-19T03:47:21;12.60;1.00
37956;DHT22;23776;51.592;7.180;2023-11-19T03:49:50;12.60;1.00
37956;DHT22;23776;51.592;7.180;2023-11-19T03:52:17;12.50;1.00
37956;DHT22;23776;51.592;7.180;2023-11-19T03:54:44;12.50;1.00
37956;DHT22;23776;51.592;7.180;2023-11-19T03:57:09;12.40;1.00
37956;DHT22;23776;51.592;7.180;2023-11-19T03:59:38;12.40;1.00
37956;DHT22;23776;51.592;7.180;2023-11-19T04:02:04;12.50;1.00
37956;DHT22;23776;51.592;7.180;2023-11-19T04:04:30;12.40;1.00
37956;DHT22;23776;51.592;7.180;2023-11-19T04:06:56;12.40;1.00
37956;DHT22;23776;51.592;7.180;2023-11-19T04:09:22;12.50;1.00
37956;DHT22;23776;51.592;7.180;2023-11-19T04:11:48;12.40;1.00
37956;DHT22;23776;51.592;7.180;2023-11-19T04:14:14;12.40;1.00
37956;DHT22;23776;51.592;7.180;2023-11-19T04:16:40;12.40;1.00
37956;DHT22;23776;51.592;7.180;2023-11-19T04:19:06;12.40;1.00
37956;DHT22;23776;51.592;7.180;2023-11-19T04:21:32;12.30;1.00
37956;DHT22;23776;51.592;7.180;2023-11-19T04:23:58;12.30;1.00
37956;DHT22;23776;51.592;7.180;2023-11-19T04:26:23;12.30;1.00
37956;DHT22;23776;51.592;7.180;2023-11-19T04:28:49;12.30;1.00
37956;DHT22;23776;51.592;7.180;2023-11-19T04:31:15;12.30;1.00
37956;DHT22;23776;51.592;7.180;2023-11-19T04:33:42;12.30;1.00
37956;DHT22;23776;51.592;7.180;2023-11-19T04:36:08;12.20;1.00
37956;DHT22;23776;51.592;7.180;2023-11-19T04:38:33;12.20;1.00
37956;DHT22;23776;51.592;7.180;2023-11-19T04:41:00;12.10;1.00
37956;DHT22;23776;51.592;7.180;2023-11-19T04:43:25;12.10;1.00
37956;DHT22;23776;51.592;7.180;2023-11-19T04:45:51;12.00;1.00
37956;DHT22;23776;51.592;7.180;2023-11-19T04:48:16;12.10;1.00
37956;DHT22;23776;51.592;7.180;2023-11-19T04:50:42;12.10;1.00
37956;DHT22;23776;51.592;7.180;2023-11-19T04:53:07;11.90;1.00
37956;DHT22;23776;51.592;7.180;2023-11-19T04:55:33;12.00;1.00
37956;DHT22;23776;51.592;7.180;2023-11-19T04:57:59;12.00;1.00
37956;DHT22;23776;51.592;7.180;2023-11-19T05:00:24;12.00;1.00
37956;DHT22;23776;51.592;7.180;2023-11-19T05:02:51;11.90;1.00
37956;DHT22;23776;51.592;7.180;2023-11-19T05:05:16;11.90;1.00
37956;DHT22;23776;51.592;7.180;2023-11-19T05:07:43;11.90;1.00
37956;DHT22;23776;51.592;7.180;2023-11-19T05:10:08;11.90;1.00
37956;DHT22;23776;51.592;7.180;2023-11-19T05:12:34;11.80;1.00
37956;DHT22;23776;51.592;7.180;2023-11-19T05:15:00;11.90;1.00
37956;DHT22;23776;51.592;7.180;2023-11-19T05:17:26;11.80;1.00
37956;DHT22;23776;51.592;7.180;2023-11-19T05:19:52;11.80;1.00
37956;DHT22;23776;51.592;7.180;2023-11-19T05:22:17;11.80;1.00
37956;DHT22;23776;51.592;7.180;2023-11-19T05:24:43;11.90;1.00
37956;DHT22;23776;51.592;7.180;2023-11-19T05:27:09;11.90;1.00
37956;DHT22;23776;51.592;7.180;2023-11-19T05:29:37;11.90;1.00
37956;DHT22;23776;51.592;7.180;2023-11-19T05:32:05;12.00;1.00
37956;DHT22;23776;51.592;7.180;2023-11-19T05:34:30;12.00;1.00
37956;DHT22;23776;51.592;7.180;2023-11-19T05:36:56;12.10;1.00
37956;DHT22;23776;51.592;7.180;2023-11-19T05:39:22;12.00;1.00
37956;DHT22;23776;51.592;7.180;2023-11-19T05:41:48;12.00;1.00
37956;DHT22;23776;51.592;7.180;2023-11-19T05:44:14;12.10;1.00
37956;DHT22;23776;51.592;7.180;2023-11-19T05:46:39;12.10;1.00
37956;DHT22;23776;51.592;7.180;2023-11-19T05:49:11;12.20;1.00
37956;DHT22;23776;51.592;7.180;2023-11-19T05:51:37;12.20;1.00
37956;DHT22;23776;51.592;7.180;2023-11-19T05:54:06;14.90;1.00
37956;DHT22;23776;51.592;7.180;2023-11-19T05:56:32;12.30;99.90
37956;DHT22;23776;51.592;7.180;2023-11-19T05:58:59;12.30;99.90
37956;DHT22;23776;51.592;7.180;2023-11-19T06:01:29;12.20;99.90
37956;DHT22;23776;51.592;7.180;2023-11-19T06:03:55;12.10;99.90
37956;DHT22;23776;51.592;7.180;2023-11-19T06:06:20;12.10;99.90
37956;DHT22;23776;51.592;7.180;2023-11-19T06:08:46;12.00;99.90
37956;DHT22;23776;51.592;7.180;2023-11-19T06:11:12;11.90;99.90
37956;DHT22;23776;51.592;7.180;2023-11-19T06:13:44;11.90;99.90
37956;DHT22;23776;51.592;7.180;2023-11-19T06:16:10;12.00;99.90
37956;DHT22;23776;51.592;7.180;2023-11-19T06:18:38;12.00;1.00
37956;DHT22;23776;51.592;7.180;2023-11-19T06:21:04;12.00;1.00
37956;DHT22;23776;51.592;7.180;2023-11-19T06:23:29;12.00;1.00
37956;DHT22;23776;51.592;7.180;2023-11-19T06:25:55;12.10;1.00
37956;DHT22;23776;51.592;7.180;2023-11-19T06:28:20;12.00;1.00
37956;DHT22;23776;51.592;7.180;2023-11-19T06:30:46;11.90;1.00
37956;DHT22;23776;51.592;7.180;2023-11-19T06:33:15;11.90;1.00
37956;DHT22;23776;51.592;7.180;2023-11-19T06:35:40;11.90;1.00
37956;DHT22;23776;51.592;7.180;2023-11-19T06:38:06;11.90;99.90
37956;DHT22;23776;51.592;7.180;2023-11-19T06:40:32;11.90;1.00
37956;DHT22;23776;51.592;7.180;2023-11-19T06:42:59;11.90;99.90
37956;DHT22;23776;51.592;7.180;2023-11-19T06:45:24;11.90;99.90
37956;DHT22;23776;51.592;7.180;2023-11-19T06:47:50;11.90;99.90
37956;DHT22;23776;51.592;7.180;2023-11-19T06:50:16;11.90;99.90
37956;DHT22;23776;51.592;7.180;2023-11-19T06:52:42;11.90;99.90
37956;DHT22;23776;51.592;7.180;2023-11-19T06:55:08;11.90;99.90
37956;DHT22;23776;51.592;7.180;2023-11-19T06:57:33;11.90;99.90
37956;DHT22;23776;51.592;7.180;2023-11-19T06:59:59;11.90;99.90
37956;DHT22;23776;51.592;7.180;2023-11-19T07:02:25;11.90;99.90
37956;DHT22;23776;51.592;7.180;2023-11-19T07:04:51;11.90;99.90
37956;DHT22;23776;51.592;7.180;2023-11-19T07:07:16;12.00;99.90
37956;DHT22;23776;51.592;7.180;2023-11-19T07:09:42;12.00;99.90
37956;DHT22;23776;51.592;7.180;2023-11-19T07:12:08;12.00;99.90
37956;DHT22;23776;51.592;7.180;2023-11-19T07:14:34;12.10;99.90
37956;DHT22;23776;51.592;7.180;2023-11-19T07:16:59;12.10;99.90
37956;DHT22;23776;51.592;7.180;2023-11-19T07:19:25;12.10;99.90
37956;DHT22;23776;51.592;7.180;2023-11-19T07:21:51;12.20;99.90
37956;DHT22;23776;51.592;7.180;2023-11-19T07:24:20;12.10;99.90
37956;DHT22;23776;51.592;7.180;2023-11-19T07:26:47;12.10;99.90
37956;DHT22;23776;51.592;7.180;2023-11-19T07:29:14;12.10;99.90
37956;DHT22;23776;51.592;7.180;2023-11-19T07:31:40;12.10;99.90
37956;DHT22;23776;51.592;7.180;2023-11-19T07:34:06;12.00;99.90
37956;DHT22;23776;51.592;7.180;2023-11-19T07:36:32;12.10;99.90
37956;DHT22;23776;51.592;7.180;2023-11-19T07:38:58;12.10;99.90
37956;DHT22;23776;51.592;7.180;2023-11-19T07:41:24;12.00;99.90
37956;DHT22;23776;51.592;7.180;2023-11-19T07:43:50;12.00;99.90
37956;DHT22;23776;51.592;7.180;2023-11-19T07:46:17;12.00;99.90
37956;DHT22;23776;51.592;7.180;2023-11-19T07:48:45;12.10;99.90
37956;DHT22;23776;51.592;7.180;2023-11-19T07:51:13;12.00;99.90
37956;DHT22;23776;51.592;7.180;2023-11-19T07:53:39;12.00;99.90
37956;DHT22;23776;51.592;7.180;2023-11-19T07:56:06;11.90;99.90
37956;DHT22;23776;51.592;7.180;2023-11-19T07:58:32;12.00;85.10
37956;DHT22;23776;51.592;7.180;2023-11-19T08:00:58;12.00;99.90
37956;DHT22;23776;51.592;7.180;2023-11-19T08:03:23;12.00;67.00
37956;DHT22;23776;51.592;7.180;2023-11-19T08:05:49;11.90;99.90
37956;DHT22;23776;51.592;7.180;2023-11-19T08:08:15;13.60;99.90
37956;DHT22;23776;51.592;7.180;2023-11-19T08:10:41;12.00;96.40
37956;DHT22;23776;51.592;7.180;2023-11-19T08:13:07;12.10;32.30
37956;DHT22;23776;51.592;7.180;2023-11-19T08:15:33;12.10;1.50
37956;DHT22;23776;51.592;7.180;2023-11-19T08:17:59;12.10;1.00
37956;DHT22;23776;51.592;7.180;2023-11-19T08:20:25;12.10;1.00
37956;DHT22;23776;51.592;7.180;2023-11-19T08:22:50;12.20;1.00
37956;DHT22;23776;51.592;7.180;2023-11-19T08:25:16;12.20;1.00
37956;DHT22;23776;51.592;7.180;2023-11-19T08:27:42;12.30;1.00
37956;DHT22;23776;51.592;7.180;2023-11-19T08:30:08;12.30;1.00
37956;DHT22;23776;51.592;7.180;2023-11-19T08:32:34;12.30;99.90
37956;DHT22;23776;51.592;7.180;2023-11-19T08:35:00;12.30;99.90
37956;DHT22;23776;51.592;7.180;2023-11-19T08:37:27;12.40;99.90
37956;DHT22;23776;51.592;7.180;2023-11-19T08:39:52;12.50;1.00
37956;DHT22;23776;51.592;7.180;2023-11-19T08:42:19;12.50;1.00
37956;DHT22;23776;51.592;7.180;2023-11-19T08:44:49;12.50;1.00
37956;DHT22;23776;51.592;7.180;2023-11-19T08:47:19;12.50;10.70
37956;DHT22;23776;51.592;7.180;2023-11-19T08:49:45;12.40;1.00
37956;DHT22;23776;51.592;7.180;2023-11-19T08:52:11;12.40;1.00
37956;DHT22;23776;51.592;7.180;2023-11-19T08:54:36;12.40;1.00
37956;DHT22;23776;51.592;7.180;2023-11-19T08:57:03;12.40;1.00
37956;DHT22;23776;51.592;7.180;2023-11-19T08:59:29;12.30;99.90
37956;DHT22;23776;51.592;7.180;2023-11-19T09:01:55;12.30;93.80
37956;DHT22;23776;51.592;7.180;2023-11-19T09:04:20;12.40;91.00
37956;DHT22;23776;51.592;7.180;2023-11-19T09:06:48;12.40;99.90
37956;DHT22;23776;51.592;7.180;2023-11-19T09:09:14;12.50;92.50
37956;DHT22;23776;51.592;7.180;2023-11-19T09:11:40;12.50;78.90
37956;DHT22;23776;51.592;7.180;2023-11-19T09:14:06;12.60;20.50
37956;DHT22;23776;51.592;7.180;2023-11-19T09:16:31;12.60;1.00
37956;DHT22;23776;51.592;7.180;2023-11-19T09:18:57;12.60;1.00
37956;DHT22;23776;51.592;7.180;2023-11-19T09:21:28;12.70;99.90
37956;DHT22;23776;51.592;7.180;2023-11-19T09:23:55;12.70;99.90
37956;DHT22;23776;51.592;7.180;2023-11-19T09:26:20;12.70;99.90
37956;DHT22;23776;51.592;7.180;2023-11-19T09:28:46;12.70;99.90
37956;DHT22;23776;51.592;7.180;2023-11-19T09:31:16;12.80;99.90
37956;DHT22;23776;51.592;7.180;2023-11-19T09:33:42;12.80;13.20
37956;DHT22;23776;51.592;7.180;2023-11-19T09:36:08;12.80;99.90
37956;DHT22;23776;51.592;7.180;2023-11-19T09:38:34;12.80;99.90
37956;DHT22;23776;51.592;7.180;2023-11-19T09:41:07;12.80;99.90
37956;DHT22;23776;51.592;7.180;2023-11-19T09:43:38;12.70;1.00
37956;DHT22;23776;51.592;7.180;2023-11-19T09:46:06;12.80;99.90
37956;DHT22;23776;51.592;7.180;2023-11-19T09:48:38;12.80;99.90
37956;DHT22;23776;51.592;7.180;2023-11-19T09:51:10;12.70;99.90
37956;DHT22;23776;51.592;7.180;2023-11-19T09:53:37;12.80;99.90
37956;DHT22;23776;51.592;7.180;2023-11-19T09:56:06;12.80;1.00
37956;DHT22;23776;51.592;7.180;2023-11-19T09:58:33;12.70;1.00
37956;DHT22;23776;51.592;7.180;2023-11-19T10:01:00;12.70;99.90
37956;DHT22;23776;51.592;7.180;2023-11-19T10:03:31;12.80;99.90
37956;DHT22;23776;51.592;7.180;2023-11-19T10:05:58;12.70;99.90
37956;DHT22;23776;51.592;7.180;2023-11-19T10:08:25;12.70;58.10
37956;DHT22;23776;51.592;7.180;2023-11-19T10:10:50;12.70;89.00
37956;DHT22;23776;51.592;7.180;2023-11-19T10:13:17;12.70;1.00
37956;DHT22;23776;51.592;7.180;2023-11-19T10:15:44;12.80;1.00
37956;DHT22;23776;51.592;7.180;2023-11-19T10:18:09;12.80;1.00
37956;DHT22;23776;51.592;7.180;2023-11-19T10:20:41;12.80;99.90
37956;DHT22;23776;51.592;7.180;2023-11-19T10:23:07;12.80;21.50
37956;DHT22;23776;51.592;7.180;2023-11-19T10:25:33;12.80;21.70
37956;DHT22;23776;51.592;7.180;2023-11-19T10:27:59;12.70;99.90
37956;DHT22;23776;51.592;7.180;2023-11-19T10:30:27;12.70;99.90
37956;DHT22;23776;51.592;7.180;2023-11-19T10:35:33;12.80;1.00
37956;DHT22;23776;51.592;7.180;2023-11-19T10:38:00;12.90;99.90
37956;DHT22;23776;51.592;7.180;2023-11-19T10:40:39;12.80;99.90
37956;DHT22;23776;51.592;7.180;2023-11-19T10:43:08;13.00;1.00
37956;DHT22;23776;51.592;7.180;2023-11-19T10:45:38;13.00;1.00
37956;DHT22;23776;51.592;7.180;2023-11-19T10:48:04;14.50;99.90
37956;DHT22;23776;51.592;7.180;2023-11-19T10:50:37;13.00;99.90
37956;DHT22;23776;51.592;7.180;2023-11-19T10:53:04;13.10;1.00
37956;DHT22;23776;51.592;7.180;2023-11-19T10:55:34;13.00;1.00
37956;DHT22;23776;51.592;7.180;2023-11-19T10:58:07;13.10;9.80
37956;DHT22;23776;51.592;7.180;2023-11-19T11:00:47;12.90;1.00
37956;DHT22;23776;51.592;7.180;2023-11-19T11:03:20;12.50;1.00
37956;DHT22;23776;51.592;7.180;2023-11-19T11:05:49;12.50;99.90
37956;DHT22;23776;51.592;7.180;2023-11-19T11:08:15;12.50;99.90
37956;DHT22;23776;51.592;7.180;2023-11-19T11:10:55;12.60;41.20
37956;DHT22;23776;51.592;7.180;2023-11-19T11:13:23;12.60;1.00
37956;DHT22;23776;51.592;7.180;2023-11-19T11:15:58;12.70;1.00
37956;DHT22;23776;51.592;7.180;2023-11-19T11:18:24;12.70;1.00
37956;DHT22;23776;51.592;7.180;2023-11-19T11:21:06;12.70;1.00
37956;DHT22;23776;51.592;7.180;2023-11-19T11:34:44;13.00;1.00
37956;DHT22;23776;51.592;7.180;2023-11-19T11:39:46;13.20;1.00
37956;DHT22;23776;51.592;7.180;2023-11-19T11:50:17;13.30;62.50
37956;DHT22;23776;51.592;7.180;2023-11-19T11:55:27;13.50;99.90
37956;DHT22;23776;51.592;7.180;2023-11-19T11:57:56;13.60;11.60
37956;DHT22;23776;51.592;7.180;2023-11-19T12:00:36;13.70;1.00
37956;DHT22;23776;51.592;7.180;2023-11-19T12:03:06;13.70;1.00
37956;DHT22;23776;51.592;7.180;2023-11-19T12:05:33;13.70;99.90
37956;DHT22;23776;51.592;7.180;2023-11-19T12:08:03;13.80;99.90
37956;DHT22;23776;51.592;7.180;2023-11-19T12:10:51;13.90;95.50
37956;DHT22;23776;51.592;7.180;2023-11-19T12:13:17;13.90;99.90
37956;DHT22;23776;51.592;7.180;2023-11-19T12:18:31;14.10;99.90
37956;DHT22;23776;51.592;7.180;2023-11-19T12:20:58;14.10;99.90
37956;DHT22;23776;51.592;7.180;2023-11-19T12:23:30;14.00;99.90
37956;DHT22;23776;51.592;7.180;2023-11-19T12:25:56;14.00;99.90
37956;DHT22;23776;51.592;7.180;2023-11-19T12:28:23;14.00;99.90
37956;DHT22;23776;51.592;7.180;2023-11-19T12:30:52;13.90;1.00
37956;DHT22;23776;51.592;7.180;2023-11-19T12:33:19;13.90;99.90
37956;DHT22;23776;51.592;7.180;2023-11-19T12:35:46;13.90;1.00
37956;DHT22;23776;51.592;7.180;2023-11-19T12:38:23;14.00;1.00
37956;DHT22;23776;51.592;7.180;2023-11-19T12:41:08;14.10;99.90
37956;DHT22;23776;51.592;7.180;2023-11-19T12:43:36;14.20;1.00
37956;DHT22;23776;51.592;7.180;2023-11-19T12:46:03;14.30;1.00
37956;DHT22;23776;51.592;7.180;2023-11-19T12:48:29;14.30;1.00
37956;DHT22;23776;51.592;7.180;2023-11-19T12:50:58;12.00;1.00
37956;DHT22;23776;51.592;7.180;2023-11-19T12:53:26;14.10;1.00
37956;DHT22;23776;51.592;7.180;2023-11-19T12:55:52;14.00;1.00
37956;DHT22;23776;51.592;7.180;2023-11-19T12:58:32;13.80;1.00
37956;DHT22;23776;51.592;7.180;2023-11-19T13:01:05;13.40;99.90
37956;DHT22;23776;51.592;7.180;2023-11-19T13:03:32;12.80;99.90
37956;DHT22;23776;51.592;7.180;2023-11-19T13:06:06;12.60;1.00
37956;DHT22;23776;51.592;7.180;2023-11-19T13:08:43;12.30;99.90
37956;DHT22;23776;51.592;7.180;2023-11-19T13:11:10;12.00;99.90
37956;DHT22;23776;51.592;7.180;2023-11-19T13:13:55;11.90;1.00
37956;DHT22;23776;51.592;7.180;2023-11-19T13:16:22;12.00;1.00
37956;DHT22;23776;51.592;7.180;2023-11-19T13:18:47;12.20;1.00
37956;DHT22;23776;51.592;7.180;2023-11-19T13:21:13;12.20;1.00
37956;DHT22;23776;51.592;7.180;2023-11-19T13:23:38;12.40;1.00
37956;DHT22;23776;51.592;7.180;2023-11-19T13:26:04;12.40;99.90
37956;DHT22;23776;51.592;7.180;2023-11-19T13:28:30;12.40;99.90
37956;DHT22;23776;51.592;7.180;2023-11-19T13:30:56;12.50;99.90
37956;DHT22;23776;51.592;7.180;2023-11-19T13:33:21;12.60;99.90
37956;DHT22;23776;51.592;7.180;2023-11-19T13:35:47;12.60;99.90
37956;DHT22;23776;51.592;7.180;2023-11-19T13:38:12;12.60;99.90
37956;DHT22;23776;51.592;7.180;2023-11-19T13:40:38;12.60;1.00
37956;DHT22;23776;51.592;7.180;2023-11-19T13:43:04;12.70;1.00
37956;DHT22;23776;51.592;7.180;2023-11-19T13:45:30;12.70;1.00
37956;DHT22;23776;51.592;7.180;2023-11-19T13:47:55;12.70;99.90
37956;DHT22;23776;51.592;7.180;2023-11-19T13:50:21;12.50;99.90
37956;DHT22;23776;51.592;7.180;2023-11-19T13:52:48;10.20;1.00
37956;DHT22;23776;51.592;7.180;2023-11-19T13:55:14;12.50;99.90
37956;DHT22;23776;51.592;7.180;2023-11-19T13:57:41;12.50;99.90
37956;DHT22;23776;51.592;7.180;2023-11-19T14:00:08;12.50;1.00
37956;DHT22;23776;51.592;7.180;2023-11-19T14:02:49;12.50;99.90
37956;DHT22;23776;51.592;7.180;2023-11-19T14:05:15;12.50;99.90
37956;DHT22;23776;51.592;7.180;2023-11-19T14:07:43;12.70;99.90
37956;DHT22;23776;51.592;7.180;2023-11-19T14:10:09;12.90;99.90
37956;DHT22;23776;51.592;7.180;2023-11-19T14:12:39;13.30;1.00
37956;DHT22;23776;51.592;7.180;2023-11-19T14:15:06;13.30;1.00
37956;DHT22;23776;51.592;7.180;2023-11-19T14:17:33;13.40;1.00
37956;DHT22;23776;51.592;7.180;2023-11-19T14:19:59;13.30;99.90
37956;DHT22;23776;51.592;7.180;2023-11-19T14:22:25;13.10;1.00
37956;DHT22;23776;51.592;7.180;2023-11-19T14:24:51;13.20;1.00
37956;DHT22;23776;51.592;7.180;2023-11-19T14:27:17;13.00;99.90
37956;DHT22;23776;51.592;7.180;2023-11-19T14:29:43;13.00;1.00
37956;DHT22;23776;51.592;7.180;2023-11-19T14:32:10;13.00;94.00
37956;DHT22;23776;51.592;7.180;2023-11-19T14:34:36;13.00;1.00
37956;DHT22;23776;51.592;7.180;2023-11-19T14:37:02;13.00;99.90
37956;DHT22;23776;51.592;7.180;2023-11-19T14:39:28;12.90;99.90
37956;DHT22;23776;51.592;7.180;2023-11-19T14:41:56;12.80;99.90
37956;DHT22;23776;51.592;7.180;2023-11-19T14:44:26;12.50;99.90
37956;DHT22;23776;51.592;7.180;2023-11-19T14:46:52;12.40;99.90
37956;DHT22;23776;51.592;7.180;2023-11-19T14:49:18;12.20;99.90
37956;DHT22;23776;51.592;7.180;2023-11-19T14:51:43;12.10;99.90
37956;DHT22;23776;51.592;7.180;2023-11-19T14:54:09;12.00;99.90
37956;DHT22;23776;51.592;7.180;2023-11-19T14:56:34;11.90;99.90
37956;DHT22;23776;51.592;7.180;2023-11-19T14:59:00;11.90;99.90
37956;DHT22;23776;51.592;7.180;2023-11-19T15:01:25;11.90;99.90
37956;DHT22;23776;51.592;7.180;2023-11-19T15:03:52;11.80;99.90
37956;DHT22;23776;51.592;7.180;2023-11-19T15:06:18;11.80;99.90
37956;DHT22;23776;51.592;7.180;2023-11-19T15:08:43;11.90;99.90
37956;DHT22;23776;51.592;7.180;2023-11-19T15:11:10;11.80;99.90
37956;DHT22;23776;51.592;7.180;2023-11-19T15:13:37;11.90;99.90
37956;DHT22;23776;51.592;7.180;2023-11-19T15:16:03;11.90;99.90
37956;DHT22;23776;51.592;7.180;2023-11-19T15:18:31;11.90;99.90
37956;DHT22;23776;51.592;7.180;2023-11-19T15:20:57;11.90;99.90
37956;DHT22;23776;51.592;7.180;2023-11-19T15:23:22;11.90;99.90
37956;DHT22;23776;51.592;7.180;2023-11-19T15:25:48;12.00;99.90
37956;DHT22;23776;51.592;7.180;2023-11-19T15:28:14;11.80;99.90
37956;DHT22;23776;51.592;7.180;2023-11-19T15:30:40;11.90;99.90
37956;DHT22;23776;51.592;7.180;2023-11-19T15:33:06;11.90;99.90
37956;DHT22;23776;51.592;7.180;2023-11-19T15:35:34;11.90;99.90
37956;DHT22;23776;51.592;7.180;2023-11-19T15:38:00;12.00;99.90
37956;DHT22;23776;51.592;7.180;2023-11-19T15:40:26;12.00;99.90
37956;DHT22;23776;51.592;7.180;2023-11-19T15:42:52;12.10;99.90
37956;DHT22;23776;51.592;7.180;2023-11-19T15:45:20;12.10;99.90
37956;DHT22;23776;51.592;7.180;2023-11-19T15:47:46;12.10;99.90
37956;DHT22;23776;51.592;7.180;2023-11-19T15:50:11;12.10;99.90
37956;DHT22;23776;51.592;7.180;2023-11-19T15:52:37;11.90;99.90
37956;DHT22;23776;51.592;7.180;2023-11-19T15:55:04;11.90;99.90
37956;DHT22;23776;51.592;7.180;2023-11-19T15:57:29;11.80;99.90
37956;DHT22;23776;51.592;7.180;2023-11-19T15:59:55;11.80;99.90
37956;DHT22;23776;51.592;7.180;2023-11-19T16:02:21;11.80;99.90
37956;DHT22;23776;51.592;7.180;2023-11-19T16:04:46;11.70;99.90
37956;DHT22;23776;51.592;7.180;2023-11-19T16:07:15;11.70;99.90
37956;DHT22;23776;51.592;7.180;2023-11-19T16:09:41;11.70;99.90